sensor_id;sensor_type;location;lat;lon;timestamp;pressure;altitude;pressure_sealevel;temperature;humidity
55733;BME280;41637;52.364;9.910;2023-01-28T00:00:53;102097.13;;;1.88;71.74
55733;BME280;41637;52.364;9.910;2023-01-28T00:03:21;102099.42;;;1.88;71.93
55733;BME280;41637;52.364;9.910;2023-01-28T00:05:47;102092.55;;;1.86;72.08
55733;BME280;41637;52.364;9.910;2023-01-28T00:08:14;102092.27;;;1.81;71.58
55733;BME280;41637;52.364;9.910;2023-01-28T00:10:41;102098.52;;;1.78;71.76
55733;BME280;41637;52.364;9.910;2023-01-28T00:13:12;102095.64;;;1.77;72.18
55733;BME280;41637;52.364;9.910;2023-01-28T00:15:40;102094.47;;;1.76;72.03
55733;BME280;41637;52.364;9.910;2023-01-28T00:18:07;102094.11;;;1.76;72.26
55733;BME280;41637;52.364;9.910;2023-01-28T00:20:34;102094.92;;;1.77;72.19
55733;BME280;41637;52.364;9.910;2023-01-28T00:23:01;102097.62;;;1.76;71.96
55733;BME280;41637;52.364;9.910;2023-01-28T00:25:28;102099.54;;;1.76;72.21
55733;BME280;41637;52.364;9.910;2023-01-28T00:27:55;102101.30;;;1.76;72.09
55733;BME280;41637;52.364;9.910;2023-01-28T00:30:21;102099.73;;;1.75;71.98
55733;BME280;41637;52.364;9.910;2023-01-28T00:32:48;102100.20;;;1.70;71.28
55733;BME280;41637;52.364;9.910;2023-01-28T00:35:15;102095.52;;;1.66;71.35
55733;BME280;41637;52.364;9.910;2023-01-28T00:37:45;102102.29;;;1.64;71.75
55733;BME280;41637;52.364;9.910;2023-01-28T00:40:13;102103.34;;;1.60;71.96
55733;BME280;41637;52.364;9.910;2023-01-28T00:42:40;102104.02;;;1.57;71.90
55733;BME280;41637;52.364;9.910;2023-01-28T00:45:07;102100.20;;;1.57;72.13
55733;BME280;41637;52.364;9.910;2023-01-28T00:47:34;102102.30;;;1.60;72.41
55733;BME280;41637;52.364;9.910;2023-01-28T00:50:01;102103.02;;;1.59;72.20
55733;BME280;41637;52.364;9.910;2023-01-28T00:52:28;102096.50;;;1.58;71.83
55733;BME280;41637;52.364;9.910;2023-01-28T00:54:55;102097.83;;;1.56;71.99
55733;BME280;41637;52.364;9.910;2023-01-28T00:57:23;102099.39;;;1.56;72.15
55733;BME280;41637;52.364;9.910;2023-01-28T00:59:50;102098.57;;;1.58;72.13
55733;BME280;41637;52.364;9.910;2023-01-28T01:02:17;102098.35;;;1.59;72.39
55733;BME280;41637;52.364;9.910;2023-01-28T01:04:44;102101.94;;;1.57;71.61
55733;BME280;41637;52.364;9.910;2023-01-28T01:07:25;102097.06;;;1.54;71.79
55733;BME280;41637;52.364;9.910;2023-01-28T01:10:09;102097.73;;;1.51;71.59
55733;BME280;41637;52.364;9.910;2023-01-28T01:12:40;102101.54;;;1.45;71.59
55733;BME280;41637;52.364;9.910;2023-01-28T01:15:08;102101.11;;;1.43;71.80
55733;BME280;41637;52.364;9.910;2023-01-28T01:17:37;102099.48;;;1.44;72.14
55733;BME280;41637;52.364;9.910;2023-01-28T01:20:07;102098.36;;;1.42;71.88
55733;BME280;41637;52.364;9.910;2023-01-28T01:22:38;102097.75;;;1.41;72.41
55733;BME280;41637;52.364;9.910;2023-01-28T01:25:10;102098.45;;;1.41;72.68
55733;BME280;41637;52.364;9.910;2023-01-28T01:27:39;102094.48;;;1.43;72.63
55733;BME280;41637;52.364;9.910;2023-01-28T01:30:06;102092.79;;;1.46;72.56
55733;BME280;41637;52.364;9.910;2023-01-28T01:32:34;102090.89;;;1.45;72.53
55733;BME280;41637;52.364;9.910;2023-01-28T01:35:03;102087.98;;;1.44;72.55
55733;BME280;41637;52.364;9.910;2023-01-28T01:37:32;102092.67;;;1.45;73.05
55733;BME280;41637;52.364;9.910;2023-01-28T01:40:00;102095.67;;;1.44;72.93
55733;BME280;41637;52.364;9.910;2023-01-28T01:42:33;102100.38;;;1.40;72.50
55733;BME280;41637;52.364;9.910;2023-01-28T01:45:06;102097.83;;;1.36;72.79
55733;BME280;41637;52.364;9.910;2023-01-28T01:47:43;102101.14;;;1.32;72.67
55733;BME280;41637;52.364;9.910;2023-01-28T01:50:40;102102.65;;;1.30;72.26
55733;BME280;41637;52.364;9.910;2023-01-28T01:53:14;102103.42;;;1.29;72.13
55733;BME280;41637;52.364;9.910;2023-01-28T01:55:44;102107.27;;;1.29;72.30
55733;BME280;41637;52.364;9.910;2023-01-28T01:58:15;102106.52;;;1.30;72.23
55733;BME280;41637;52.364;9.910;2023-01-28T02:00:45;102110.25;;;1.35;72.37
55733;BME280;41637;52.364;9.910;2023-01-28T02:03:12;102110.14;;;1.40;72.78
55733;BME280;41637;52.364;9.910;2023-01-28T02:05:40;102114.95;;;1.42;71.78
55733;BME280;41637;52.364;9.910;2023-01-28T02:08:08;102117.81;;;1.40;71.91
55733;BME280;41637;52.364;9.910;2023-01-28T02:11:00;102116.89;;;1.35;70.36
55733;BME280;41637;52.364;9.910;2023-01-28T02:13:32;102118.40;;;1.32;70.19
55733;BME280;41637;52.364;9.910;2023-01-28T02:16:01;102121.44;;;1.31;69.64
55733;BME280;41637;52.364;9.910;2023-01-28T02:18:30;102123.95;;;1.30;70.30
55733;BME280;41637;52.364;9.910;2023-01-28T02:21:21;102121.23;;;1.31;70.54
55733;BME280;41637;52.364;9.910;2023-01-28T02:24:25;102125.87;;;1.33;70.93
55733;BME280;41637;52.364;9.910;2023-01-28T02:27:23;102125.98;;;1.31;70.69
55733;BME280;41637;52.364;9.910;2023-01-28T02:36:11;102128.59;;;1.20;71.19
55733;BME280;41637;52.364;9.910;2023-01-28T02:38:32;102125.75;;;1.18;71.35
55733;BME280;41637;52.364;9.910;2023-01-28T02:41:04;102123.88;;;1.17;71.35
55733;BME280;41637;52.364;9.910;2023-01-28T02:44:00;102115.08;;;1.19;71.76
55733;BME280;41637;52.364;9.910;2023-01-28T02:49:26;102114.60;;;1.15;71.37
55733;BME280;41637;52.364;9.910;2023-01-28T02:52:06;102110.16;;;1.13;71.65
55733;BME280;41637;52.364;9.910;2023-01-28T02:57:37;102103.80;;;1.11;72.10
55733;BME280;41637;52.364;9.910;2023-01-28T03:00:12;102098.17;;;1.12;72.01
55733;BME280;41637;52.364;9.910;2023-01-28T03:02:45;102100.45;;;1.13;71.62
55733;BME280;41637;52.364;9.910;2023-01-28T03:07:48;102106.75;;;1.15;72.07
55733;BME280;41637;52.364;9.910;2023-01-28T03:10:25;102104.03;;;1.13;71.80
55733;BME280;41637;52.364;9.910;2023-01-28T03:12:54;102105.59;;;1.14;72.06
55733;BME280;41637;52.364;9.910;2023-01-28T03:15:45;102105.22;;;1.14;71.63
55733;BME280;41637;52.364;9.910;2023-01-28T03:18:45;102108.95;;;1.13;71.08
55733;BME280;41637;52.364;9.910;2023-01-28T03:21:37;102107.28;;;1.08;71.06
55733;BME280;41637;52.364;9.910;2023-01-28T03:24:27;102100.30;;;1.05;71.06
55733;BME280;41637;52.364;9.910;2023-01-28T03:27:24;102100.77;;;1.06;71.01
55733;BME280;41637;52.364;9.910;2023-01-28T03:30:26;102095.55;;;1.06;70.89
55733;BME280;41637;52.364;9.910;2023-01-28T03:33:17;102094.02;;;1.05;70.86
55733;BME280;41637;52.364;9.910;2023-01-28T03:36:03;102089.40;;;1.04;70.69
55733;BME280;41637;52.364;9.910;2023-01-28T03:38:53;102094.09;;;1.01;70.80
55733;BME280;41637;52.364;9.910;2023-01-28T03:41:25;102094.10;;;0.97;71.20
55733;BME280;41637;52.364;9.910;2023-01-28T03:43:53;102097.36;;;0.97;71.64
55733;BME280;41637;52.364;9.910;2023-01-28T03:46:20;102100.10;;;0.98;71.48
55733;BME280;41637;52.364;9.910;2023-01-28T03:48:49;102097.96;;;0.96;71.23
55733;BME280;41637;52.364;9.910;2023-01-28T03:51:16;102099.02;;;0.89;70.46
55733;BME280;41637;52.364;9.910;2023-01-28T03:53:44;102103.33;;;0.83;69.30
55733;BME280;41637;52.364;9.910;2023-01-28T03:56:11;102104.93;;;0.82;70.06
55733;BME280;41637;52.364;9.910;2023-01-28T03:58:44;102104.39;;;0.83;70.51
55733;BME280;41637;52.364;9.910;2023-01-28T04:01:22;102108.52;;;0.84;70.22
55733;BME280;41637;52.364;9.910;2023-01-28T04:03:53;102105.95;;;0.83;69.91
55733;BME280;41637;52.364;9.910;2023-01-28T04:06:24;102108.63;;;0.85;70.43
55733;BME280;41637;52.364;9.910;2023-01-28T04:08:52;102111.81;;;0.88;70.42
55733;BME280;41637;52.364;9.910;2023-01-28T04:11:20;102112.89;;;0.87;70.46
55733;BME280;41637;52.364;9.910;2023-01-28T04:13:54;102113.70;;;0.85;70.53
55733;BME280;41637;52.364;9.910;2023-01-28T04:16:21;102118.14;;;0.83;69.66
55733;BME280;41637;52.364;9.910;2023-01-28T04:18:51;102123.10;;;0.81;69.44
55733;BME280;41637;52.364;9.910;2023-01-28T04:21:18;102124.89;;;0.80;69.81
55733;BME280;41637;52.364;9.910;2023-01-28T04:23:45;102121.66;;;0.78;70.07
55733;BME280;41637;52.364;9.910;2023-01-28T04:26:12;102127.69;;;0.76;70.09
55733;BME280;41637;52.364;9.910;2023-01-28T04:28:39;102132.14;;;0.74;69.81
55733;BME280;41637;52.364;9.910;2023-01-28T04:31:07;102129.45;;;0.73;70.19
55733;BME280;41637;52.364;9.910;2023-01-28T04:33:36;102132.60;;;0.72;70.37
55733;BME280;41637;52.364;9.910;2023-01-28T04:36:04;102135.45;;;0.71;70.53
55733;BME280;41637;52.364;9.910;2023-01-28T04:38:31;102144.35;;;0.70;70.60
55733;BME280;41637;52.364;9.910;2023-01-28T04:41:00;102143.89;;;0.69;70.71
55733;BME280;41637;52.364;9.910;2023-01-28T04:43:28;102145.44;;;0.69;70.87
55733;BME280;41637;52.364;9.910;2023-01-28T04:45:55;102145.83;;;0.69;70.40
55733;BME280;41637;52.364;9.910;2023-01-28T04:48:22;102145.17;;;0.68;70.72
55733;BME280;41637;52.364;9.910;2023-01-28T04:50:58;102147.06;;;0.69;70.68
55733;BME280;41637;52.364;9.910;2023-01-28T04:53:25;102141.55;;;0.70;71.08
55733;BME280;41637;52.364;9.910;2023-01-28T04:55:54;102144.86;;;0.74;71.28
55733;BME280;41637;52.364;9.910;2023-01-28T04:58:21;102143.79;;;0.78;71.54
55733;BME280;41637;52.364;9.910;2023-01-28T05:00:55;102144.20;;;0.80;71.13
55733;BME280;41637;52.364;9.910;2023-01-28T05:03:23;102149.06;;;0.80;71.05
55733;BME280;41637;52.364;9.910;2023-01-28T05:05:53;102153.30;;;0.76;70.49
55733;BME280;41637;52.364;9.910;2023-01-28T05:08:20;102151.96;;;0.71;70.07
55733;BME280;41637;52.364;9.910;2023-01-28T05:10:50;102151.13;;;0.67;69.14
55733;BME280;41637;52.364;9.910;2023-01-28T05:13:17;102144.53;;;0.63;68.53
55733;BME280;41637;52.364;9.910;2023-01-28T05:15:49;102147.92;;;0.61;68.64
55733;BME280;41637;52.364;9.910;2023-01-28T05:18:19;102147.95;;;0.61;69.10
55733;BME280;41637;52.364;9.910;2023-01-28T05:20:46;102146.52;;;0.61;69.46
55733;BME280;41637;52.364;9.910;2023-01-28T05:23:13;102147.46;;;0.64;69.72
55733;BME280;41637;52.364;9.910;2023-01-28T05:25:40;102150.43;;;0.67;69.80
55733;BME280;41637;52.364;9.910;2023-01-28T05:28:07;102148.55;;;0.66;69.84
55733;BME280;41637;52.364;9.910;2023-01-28T05:30:36;102150.08;;;0.67;70.05
55733;BME280;41637;52.364;9.910;2023-01-28T05:33:03;102144.67;;;0.67;70.43
55733;BME280;41637;52.364;9.910;2023-01-28T05:35:33;102145.11;;;0.66;70.22
55733;BME280;41637;52.364;9.910;2023-01-28T05:38:05;102147.41;;;0.61;69.72
55733;BME280;41637;52.364;9.910;2023-01-28T05:40:32;102143.73;;;0.58;70.18
55733;BME280;41637;52.364;9.910;2023-01-28T05:42:59;102142.71;;;0.58;70.62
55733;BME280;41637;52.364;9.910;2023-01-28T05:45:26;102138.40;;;0.60;70.51
55733;BME280;41637;52.364;9.910;2023-01-28T05:47:54;102134.95;;;0.59;69.60
55733;BME280;41637;52.364;9.910;2023-01-28T05:50:21;102142.26;;;0.56;68.57
55733;BME280;41637;52.364;9.910;2023-01-28T05:52:48;102141.19;;;0.57;69.10
55733;BME280;41637;52.364;9.910;2023-01-28T05:55:15;102138.69;;;0.62;69.35
55733;BME280;41637;52.364;9.910;2023-01-28T05:57:44;102137.02;;;0.67;69.28
55733;BME280;41637;52.364;9.910;2023-01-28T06:00:11;102137.15;;;0.68;68.73
55733;BME280;41637;52.364;9.910;2023-01-28T06:02:41;102135.14;;;0.67;68.55
55733;BME280;41637;52.364;9.910;2023-01-28T06:05:12;102140.98;;;0.65;68.71
55733;BME280;41637;52.364;9.910;2023-01-28T06:07:39;102142.77;;;0.64;68.80
55733;BME280;41637;52.364;9.910;2023-01-28T06:10:06;102138.96;;;0.63;69.10
55733;BME280;41637;52.364;9.910;2023-01-28T06:12:33;102138.29;;;0.66;69.46
55733;BME280;41637;52.364;9.910;2023-01-28T06:15:00;102144.05;;;0.70;69.12
55733;BME280;41637;52.364;9.910;2023-01-28T06:17:27;102145.58;;;0.70;69.13
55733;BME280;41637;52.364;9.910;2023-01-28T06:19:54;102143.29;;;0.67;69.05
55733;BME280;41637;52.364;9.910;2023-01-28T06:22:25;102145.28;;;0.65;69.26
55733;BME280;41637;52.364;9.910;2023-01-28T06:24:52;102139.30;;;0.63;69.27
55733;BME280;41637;52.364;9.910;2023-01-28T06:27:19;102139.81;;;0.63;69.46
55733;BME280;41637;52.364;9.910;2023-01-28T06:29:47;102144.67;;;0.64;69.54
55733;BME280;41637;52.364;9.910;2023-01-28T06:32:16;102145.58;;;0.63;69.27
55733;BME280;41637;52.364;9.910;2023-01-28T06:34:43;102149.64;;;0.62;68.99
55733;BME280;41637;52.364;9.910;2023-01-28T06:37:14;102152.16;;;0.60;69.02
55733;BME280;41637;52.364;9.910;2023-01-28T06:39:41;102153.17;;;0.57;68.36
55733;BME280;41637;52.364;9.910;2023-01-28T06:42:08;102150.05;;;0.54;67.80
55733;BME280;41637;52.364;9.910;2023-01-28T06:44:35;102150.98;;;0.56;68.29
55733;BME280;41637;52.364;9.910;2023-01-28T06:47:02;102153.02;;;0.57;67.89
55733;BME280;41637;52.364;9.910;2023-01-28T06:49:29;102153.05;;;0.56;67.53
55733;BME280;41637;52.364;9.910;2023-01-28T06:51:59;102152.01;;;0.56;67.57
55733;BME280;41637;52.364;9.910;2023-01-28T06:54:31;102155.02;;;0.59;67.73
55733;BME280;41637;52.364;9.910;2023-01-28T06:57:01;102150.68;;;0.62;68.18
55733;BME280;41637;52.364;9.910;2023-01-28T06:59:28;102152.23;;;0.62;67.76
55733;BME280;41637;52.364;9.910;2023-01-28T07:01:55;102156.59;;;0.62;67.68
55733;BME280;41637;52.364;9.910;2023-01-28T07:04:23;102155.56;;;0.62;68.04
55733;BME280;41637;52.364;9.910;2023-01-28T07:06:50;102158.83;;;0.63;67.92
55733;BME280;41637;52.364;9.910;2023-01-28T07:09:17;102155.98;;;0.60;67.56
55733;BME280;41637;52.364;9.910;2023-01-28T07:11:44;102152.67;;;0.57;67.52
55733;BME280;41637;52.364;9.910;2023-01-28T07:14:14;102153.09;;;0.55;67.68
55733;BME280;41637;52.364;9.910;2023-01-28T07:16:41;102151.40;;;0.54;67.46
55733;BME280;41637;52.364;9.910;2023-01-28T07:19:08;102155.71;;;0.51;67.28
55733;BME280;41637;52.364;9.910;2023-01-28T07:21:38;102153.33;;;0.50;67.18
55733;BME280;41637;52.364;9.910;2023-01-28T07:24:06;102154.36;;;0.51;67.24
55733;BME280;41637;52.364;9.910;2023-01-28T07:26:33;102150.41;;;0.53;67.20
55733;BME280;41637;52.364;9.910;2023-01-28T07:29:00;102151.16;;;0.55;67.25
55733;BME280;41637;52.364;9.910;2023-01-28T07:31:27;102155.57;;;0.58;67.06
55733;BME280;41637;52.364;9.910;2023-01-28T07:34:01;102163.69;;;0.59;67.32
55733;BME280;41637;52.364;9.910;2023-01-28T07:36:35;102162.53;;;0.62;67.23
55733;BME280;41637;52.364;9.910;2023-01-28T07:39:03;102167.77;;;0.65;67.28
55733;BME280;41637;52.364;9.910;2023-01-28T07:41:30;102165.71;;;0.68;67.49
55733;BME280;41637;52.364;9.910;2023-01-28T07:43:57;102162.98;;;0.71;67.50
55733;BME280;41637;52.364;9.910;2023-01-28T07:46:24;102172.15;;;0.71;67.67
55733;BME280;41637;52.364;9.910;2023-01-28T07:48:51;102175.43;;;0.72;68.01
55733;BME280;41637;52.364;9.910;2023-01-28T07:51:18;102172.42;;;0.70;67.93
55733;BME280;41637;52.364;9.910;2023-01-28T07:53:44;102169.50;;;0.65;67.72
55733;BME280;41637;52.364;9.910;2023-01-28T07:56:21;102170.16;;;0.62;67.43
55733;BME280;41637;52.364;9.910;2023-01-28T07:58:49;102172.21;;;0.59;66.97
55733;BME280;41637;52.364;9.910;2023-01-28T08:01:16;102175.98;;;0.61;67.63
55733;BME280;41637;52.364;9.910;2023-01-28T08:03:43;102180.73;;;0.67;68.20
55733;BME280;41637;52.364;9.910;2023-01-28T08:06:11;102183.39;;;0.70;67.35
55733;BME280;41637;52.364;9.910;2023-01-28T08:08:37;102183.83;;;0.71;66.80
55733;BME280;41637;52.364;9.910;2023-01-28T08:11:10;102183.71;;;0.73;66.94
55733;BME280;41637;52.364;9.910;2023-01-28T08:13:37;102177.05;;;0.78;67.37
55733;BME280;41637;52.364;9.910;2023-01-28T08:16:04;102183.80;;;0.83;66.67
55733;BME280;41637;52.364;9.910;2023-01-28T08:18:32;102190.96;;;0.86;66.59
55733;BME280;41637;52.364;9.910;2023-01-28T08:20:59;102191.66;;;0.89;66.75
55733;BME280;41637;52.364;9.910;2023-01-28T08:23:26;102195.98;;;0.93;66.96
55733;BME280;41637;52.364;9.910;2023-01-28T08:25:57;102199.92;;;0.98;66.85
55733;BME280;41637;52.364;9.910;2023-01-28T08:28:24;102205.52;;;1.02;66.17
55733;BME280;41637;52.364;9.910;2023-01-28T08:30:52;102208.91;;;1.07;66.00
55733;BME280;41637;52.364;9.910;2023-01-28T08:33:20;102212.29;;;1.16;65.78
55733;BME280;41637;52.364;9.910;2023-01-28T08:35:48;102222.17;;;1.25;65.76
55733;BME280;41637;52.364;9.910;2023-01-28T08:38:15;102223.39;;;1.28;64.67
55733;BME280;41637;52.364;9.910;2023-01-28T08:40:43;102218.29;;;1.29;64.69
55733;BME280;41637;52.364;9.910;2023-01-28T08:43:11;102215.84;;;1.33;64.88
55733;BME280;41637;52.364;9.910;2023-01-28T08:45:41;102220.99;;;1.41;65.17
55733;BME280;41637;52.364;9.910;2023-01-28T08:48:11;102220.95;;;1.48;64.86
55733;BME280;41637;52.364;9.910;2023-01-28T08:50:40;102226.83;;;1.53;64.53
55733;BME280;41637;52.364;9.910;2023-01-28T08:53:11;102231.11;;;1.51;64.33
55733;BME280;41637;52.364;9.910;2023-01-28T08:55:38;102231.16;;;1.53;64.93
55733;BME280;41637;52.364;9.910;2023-01-28T08:58:11;102237.34;;;1.55;64.11
55733;BME280;41637;52.364;9.910;2023-01-28T09:00:38;102242.46;;;1.50;63.35
55733;BME280;41637;52.364;9.910;2023-01-28T09:03:06;102243.52;;;1.47;63.47
55733;BME280;41637;52.364;9.910;2023-01-28T09:05:36;102245.77;;;1.51;64.18
55733;BME280;41637;52.364;9.910;2023-01-28T09:08:11;102254.38;;;1.59;64.33
55733;BME280;41637;52.364;9.910;2023-01-28T09:10:39;102249.16;;;1.70;64.11
55733;BME280;41637;52.364;9.910;2023-01-28T09:13:13;102247.81;;;1.82;63.98
55733;BME280;41637;52.364;9.910;2023-01-28T09:15:40;102253.54;;;1.93;64.12
55733;BME280;41637;52.364;9.910;2023-01-28T09:18:08;102255.95;;;1.97;63.48
55733;BME280;41637;52.364;9.910;2023-01-28T09:20:36;102263.84;;;1.96;62.93
55733;BME280;41637;52.364;9.910;2023-01-28T09:23:03;102266.76;;;1.94;63.08
55733;BME280;41637;52.364;9.910;2023-01-28T09:25:31;102270.02;;;1.91;63.05
55733;BME280;41637;52.364;9.910;2023-01-28T09:27:58;102279.63;;;1.84;62.74
55733;BME280;41637;52.364;9.910;2023-01-28T09:30:25;102294.10;;;1.74;62.79
55733;BME280;41637;52.364;9.910;2023-01-28T09:32:53;102290.96;;;1.68;63.11
55733;BME280;41637;52.364;9.910;2023-01-28T09:35:21;102292.92;;;1.60;63.17
55733;BME280;41637;52.364;9.910;2023-01-28T09:37:48;102299.17;;;1.53;63.07
55733;BME280;41637;52.364;9.910;2023-01-28T09:40:18;102295.77;;;1.48;63.44
55733;BME280;41637;52.364;9.910;2023-01-28T09:45:40;102296.80;;;1.41;63.70
55733;BME280;41637;52.364;9.910;2023-01-28T09:48:14;102297.43;;;1.35;63.62
55733;BME280;41637;52.364;9.910;2023-01-28T09:50:45;102304.06;;;1.32;63.58
55733;BME280;41637;52.364;9.910;2023-01-28T09:53:29;102303.91;;;1.31;64.04
55733;BME280;41637;52.364;9.910;2023-01-28T09:56:01;102294.73;;;1.30;64.40
55733;BME280;41637;52.364;9.910;2023-01-28T09:58:28;102285.78;;;1.35;64.54
55733;BME280;41637;52.364;9.910;2023-01-28T10:00:59;102291.64;;;1.36;64.19
55733;BME280;41637;52.364;9.910;2023-01-28T10:03:39;102300.13;;;1.34;64.12
55733;BME280;41637;52.364;9.910;2023-01-28T10:06:17;102311.27;;;1.27;64.29
55733;BME280;41637;52.364;9.910;2023-01-28T10:14:17;102304.34;;;1.11;64.66
55733;BME280;41637;52.364;9.910;2023-01-28T10:16:55;102298.81;;;1.14;65.24
55733;BME280;41637;52.364;9.910;2023-01-28T10:19:30;102296.51;;;1.18;65.44
55733;BME280;41637;52.364;9.910;2023-01-28T10:22:01;102294.11;;;1.21;65.28
55733;BME280;41637;52.364;9.910;2023-01-28T10:24:33;102291.63;;;1.18;64.79
55733;BME280;41637;52.364;9.910;2023-01-28T10:27:19;102293.06;;;1.18;64.83
55733;BME280;41637;52.364;9.910;2023-01-28T10:29:48;102292.44;;;1.16;64.70
55733;BME280;41637;52.364;9.910;2023-01-28T10:34:55;102277.60;;;1.09;64.60
55733;BME280;41637;52.364;9.910;2023-01-28T10:37:25;102275.23;;;1.09;64.81
55733;BME280;41637;52.364;9.910;2023-01-28T10:39:56;102277.80;;;1.12;65.09
55733;BME280;41637;52.364;9.910;2023-01-28T10:42:29;102278.42;;;1.22;65.11
55733;BME280;41637;52.364;9.910;2023-01-28T10:45:02;102278.36;;;1.30;64.26
55733;BME280;41637;52.364;9.910;2023-01-28T10:47:40;102280.39;;;1.38;63.27
55733;BME280;41637;52.364;9.910;2023-01-28T10:50:16;102280.81;;;1.43;63.04
55733;BME280;41637;52.364;9.910;2023-01-28T10:52:59;102285.61;;;1.52;63.60
55733;BME280;41637;52.364;9.910;2023-01-28T10:55:33;102287.44;;;1.57;62.96
55733;BME280;41637;52.364;9.910;2023-01-28T10:58:03;102288.04;;;1.59;62.93
55733;BME280;41637;52.364;9.910;2023-01-28T11:00:34;102287.28;;;1.57;63.27
55733;BME280;41637;52.364;9.910;2023-01-28T11:03:03;102288.11;;;1.54;62.78
55733;BME280;41637;52.364;9.910;2023-01-28T11:05:30;102289.14;;;1.48;62.36
55733;BME280;41637;52.364;9.910;2023-01-28T11:08:13;102290.14;;;1.45;63.01
55733;BME280;41637;52.364;9.910;2023-01-28T11:10:41;102289.36;;;1.47;63.40
55733;BME280;41637;52.364;9.910;2023-01-28T11:13:20;102289.21;;;1.50;63.89
55733;BME280;41637;52.364;9.910;2023-01-28T11:16:04;102286.27;;;1.56;64.22
55733;BME280;41637;52.364;9.910;2023-01-28T11:18:38;102284.49;;;1.64;64.15
55733;BME280;41637;52.364;9.910;2023-01-28T11:21:15;102277.55;;;1.57;63.06
55733;BME280;41637;52.364;9.910;2023-01-28T11:23:52;102276.46;;;1.57;63.12
55733;BME280;41637;52.364;9.910;2023-01-28T11:26:26;102282.52;;;1.61;63.55
55733;BME280;41637;52.364;9.910;2023-01-28T11:28:54;102284.15;;;1.71;63.67
55733;BME280;41637;52.364;9.910;2023-01-28T11:31:22;102282.47;;;1.73;63.13
55733;BME280;41637;52.364;9.910;2023-01-28T11:34:00;102276.39;;;1.73;62.86
55733;BME280;41637;52.364;9.910;2023-01-28T11:36:32;102276.92;;;1.72;62.78
55733;BME280;41637;52.364;9.910;2023-01-28T11:39:02;102276.48;;;1.71;62.89
55733;BME280;41637;52.364;9.910;2023-01-28T11:41:35;102275.42;;;1.68;63.19
55733;BME280;41637;52.364;9.910;2023-01-28T11:44:23;102272.67;;;1.60;63.24
55733;BME280;41637;52.364;9.910;2023-01-28T11:52:26;102253.30;;;1.57;62.65
55733;BME280;41637;52.364;9.910;2023-01-28T12:00:46;102234.33;;;1.80;62.91
55733;BME280;41637;52.364;9.910;2023-01-28T12:03:38;102237.08;;;1.91;61.95
55733;BME280;41637;52.364;9.910;2023-01-28T12:08:58;102233.35;;;2.09;60.60
55733;BME280;41637;52.364;9.910;2023-01-28T12:20:32;102222.98;;;2.70;59.44
55733;BME280;41637;52.364;9.910;2023-01-28T12:28:48;102192.50;;;2.88;58.04
55733;BME280;41637;52.364;9.910;2023-01-28T12:34:25;102159.66;;;3.58;58.39
55733;BME280;41637;52.364;9.910;2023-01-28T12:42:43;102122.27;;;7.29;50.23
55733;BME280;41637;52.364;9.910;2023-01-28T12:45:17;102111.80;;;8.28;46.99
55733;BME280;41637;52.364;9.910;2023-01-28T12:47:51;102105.51;;;8.75;44.51
55733;BME280;41637;52.364;9.910;2023-01-28T12:50:32;102095.47;;;9.04;43.16
55733;BME280;41637;52.364;9.910;2023-01-28T12:53:22;102092.16;;;9.51;41.90
55733;BME280;41637;52.364;9.910;2023-01-28T12:55:56;102095.74;;;10.22;39.87
55733;BME280;41637;52.364;9.910;2023-01-28T13:01:08;102092.32;;;12.06;37.87
55733;BME280;41637;52.364;9.910;2023-01-28T13:03:47;102102.41;;;12.45;37.06
55733;BME280;41637;52.364;9.910;2023-01-28T13:06:22;102108.89;;;12.40;36.45
55733;BME280;41637;52.364;9.910;2023-01-28T13:08:57;102122.00;;;11.75;36.08
55733;BME280;41637;52.364;9.910;2023-01-28T13:11:31;102117.44;;;11.14;37.64
55733;BME280;41637;52.364;9.910;2023-01-28T13:14:00;102115.02;;;10.85;37.70
55733;BME280;41637;52.364;9.910;2023-01-28T13:16:28;102099.77;;;10.68;37.03
55733;BME280;41637;52.364;9.910;2023-01-28T13:19:23;102094.42;;;11.05;37.25
55733;BME280;41637;52.364;9.910;2023-01-28T13:21:51;102108.69;;;11.58;35.94
55733;BME280;41637;52.364;9.910;2023-01-28T13:24:20;102106.95;;;11.86;35.33
55733;BME280;41637;52.364;9.910;2023-01-28T13:26:53;102122.61;;;11.38;35.65
55733;BME280;41637;52.364;9.910;2023-01-28T13:31:53;102136.81;;;11.79;35.93
55733;BME280;41637;52.364;9.910;2023-01-28T13:34:40;102141.64;;;12.43;34.47
55733;BME280;41637;52.364;9.910;2023-01-28T13:39:49;102157.70;;;13.24;32.85
55733;BME280;41637;52.364;9.910;2023-01-28T13:44:48;102142.45;;;13.99;31.72
55733;BME280;41637;52.364;9.910;2023-01-28T13:47:30;102141.56;;;14.13;31.32
55733;BME280;41637;52.364;9.910;2023-01-28T13:50:03;102154.05;;;14.04;31.24
55733;BME280;41637;52.364;9.910;2023-01-28T13:52:33;102165.83;;;13.55;31.51
55733;BME280;41637;52.364;9.910;2023-01-28T14:00:37;102173.84;;;10.43;35.18
55733;BME280;41637;52.364;9.910;2023-01-28T14:16:58;102133.11;;;9.05;40.97
55733;BME280;41637;52.364;9.910;2023-01-28T14:19:32;102133.15;;;10.25;39.65
55733;BME280;41637;52.364;9.910;2023-01-28T14:22:06;102110.67;;;11.28;37.65
55733;BME280;41637;52.364;9.910;2023-01-28T14:24:32;102103.40;;;11.63;35.60
55733;BME280;41637;52.364;9.910;2023-01-28T14:27:25;102110.64;;;11.65;35.47
55733;BME280;41637;52.364;9.910;2023-01-28T14:32:34;102104.54;;;9.30;38.07
55733;BME280;41637;52.364;9.910;2023-01-28T14:35:06;102103.80;;;8.91;39.71
55733;BME280;41637;52.364;9.910;2023-01-28T14:37:34;102096.27;;;9.17;39.78
55733;BME280;41637;52.364;9.910;2023-01-28T14:40:03;102102.52;;;9.62;39.61
55733;BME280;41637;52.364;9.910;2023-01-28T14:42:40;102120.74;;;10.02;38.94
55733;BME280;41637;52.364;9.910;2023-01-28T14:59:25;102133.28;;;12.30;35.73
55733;BME280;41637;52.364;9.910;2023-01-28T15:01:58;102126.93;;;12.75;35.39
55733;BME280;41637;52.364;9.910;2023-01-28T15:04:31;102120.42;;;13.05;34.26
55733;BME280;41637;52.364;9.910;2023-01-28T15:09:44;102124.69;;;12.78;33.63
55733;BME280;41637;52.364;9.910;2023-01-28T15:12:11;102127.74;;;12.65;33.45
55733;BME280;41637;52.364;9.910;2023-01-28T15:14:39;102137.21;;;12.48;33.90